Time;durP1;ratioP1;P1;durP2;ratioP2;P2;SDS_P1;SDS_P2;PMS_P1;PMS_P2;Temp;Humidity;BMP_temperature;BMP_pressure;BME280_temperature;BME280_humidity;BME280_pressure;Samples;Min_cycle;Max_cycle;Signal;HPM_P1;HPM_P2
2023/07/15 00:01:29;;;;;;;7.80;2.92;;;22.80;95.20;;;;;;5112490;27;20430;-90
2023/07/15 00:03:55;;;;;;;4.75;2.28;;;22.80;94.80;;;;;;5109714;27;20113;-89
2023/07/15 00:06:21;;;;;;;8.35;2.70;;;22.80;94.50;;;;;;5094576;28;20028;-90
2023/07/15 00:08:48;;;;;;;8.48;2.55;;;22.70;94.40;;;;;;5111177;28;20024;-90
2023/07/15 00:11:35;;;;;;;6.80;2.63;;;22.70;94.50;;;;;;5094162;28;20465;-87
2023/07/15 00:14:02;;;;;;;7.07;2.55;;;22.70;94.20;;;;;;5112781;28;20110;-87
2023/07/15 00:16:29;;;;;;;6.38;2.50;;;22.70;94.50;;;;;;5111703;28;20024;-87
2023/07/15 00:18:56;;;;;;;5.75;2.28;;;22.70;94.20;;;;;;5110745;28;20058;-86
2023/07/15 00:21:30;;;;;;;4.97;2.30;;;22.70;93.80;;;;;;5094511;28;20042;-87
2023/07/15 00:23:57;;;;;;;5.10;2.20;;;22.60;93.70;;;;;;5112361;28;20023;-87
2023/07/15 00:26:25;;;;;;;9.02;2.40;;;22.60;93.40;;;;;;5093625;28;20020;-87
2023/07/15 00:28:51;;;;;;;5.00;2.00;;;22.60;93.30;;;;;;5110710;28;20448;-90
2023/07/15 00:31:19;;;;;;;9.68;2.55;;;22.50;93.30;;;;;;5110585;28;20059;-90
2023/07/15 00:33:45;;;;;;;3.65;2.10;;;22.60;93.00;;;;;;5110857;28;20024;-89
2023/07/15 00:36:12;;;;;;;4.88;2.22;;;22.50;92.60;;;;;;5093551;28;20043;-90
2023/07/15 00:38:39;;;;;;;5.20;2.45;;;22.50;92.50;;;;;;5110747;28;20381;-91
2023/07/15 00:41:18;;;;;;;7.18;2.38;;;22.50;92.40;;;;;;5110358;28;20438;-91
2023/07/15 00:44:14;;;;;;;5.50;2.47;;;22.50;91.80;;;;;;5110417;28;20345;-87
2023/07/15 00:47:29;;;;;;;5.97;2.40;;;22.50;91.50;;;;;;5110415;28;20172;-88
2023/07/15 00:49:55;;;;;;;4.95;2.10;;;22.50;91.10;;;;;;5110689;28;20028;-92
2023/07/15 00:52:30;;;;;;;8.48;2.58;;;22.50;91.30;;;;;;5112175;28;20039;-92
2023/07/15 00:54:56;;;;;;;5.15;2.42;;;22.40;90.90;;;;;;5093403;28;20023;-92
2023/07/15 00:57:25;;;;;;;6.50;2.42;;;22.50;91.00;;;;;;5093374;28;20043;-92
2023/07/15 00:59:52;;;;;;;7.95;2.42;;;22.50;91.00;;;;;;5093673;28;20047;-93
2023/07/15 01:02:18;;;;;;;6.38;2.85;;;22.60;90.90;;;;;;5121098;28;20035;-85
2023/07/15 01:04:45;;;;;;;5.28;2.20;;;22.60;90.80;;;;;;5135178;28;20000;-86
2023/07/15 01:07:11;;;;;;;6.75;2.67;;;22.60;90.70;;;;;;5117932;28;20048;-85
2023/07/15 01:09:37;;;;;;;7.10;2.20;;;22.60;90.60;;;;;;5117833;28;20004;-86
2023/07/15 01:12:03;;;;;;;6.25;2.28;;;22.60;90.60;;;;;;5122548;28;20019;-86
2023/07/15 01:14:29;;;;;;;7.88;2.40;;;22.60;90.50;;;;;;5104454;28;20026;-87
2023/07/15 01:16:54;;;;;;;8.65;2.40;;;22.60;90.60;;;;;;5104368;28;20008;-86
2023/07/15 01:19:20;;;;;;;5.82;2.30;;;22.70;90.60;;;;;;5106875;28;20200;-92
2023/07/15 01:21:50;;;;;;;7.85;2.40;;;22.70;90.50;;;;;;5079349;28;20028;-92
2023/07/15 01:24:20;;;;;;;5.43;2.15;;;22.70;90.50;;;;;;5079251;28;20423;-92
2023/07/15 01:26:47;;;;;;;4.72;2.03;;;22.70;90.30;;;;;;5079135;28;20024;-91
2023/07/15 01:29:13;;;;;;;4.45;2.42;;;22.70;90.30;;;;;;5096118;28;20077;-91
2023/07/15 01:32:01;;;;;;;4.07;2.10;;;22.70;90.20;;;;;;5095975;28;20020;-92
2023/07/15 01:34:29;;;;;;;6.88;2.65;;;22.70;89.80;;;;;;5095867;28;20477;-91
2023/07/15 01:36:56;;;;;;;3.75;1.98;;;22.70;89.30;;;;;;5078844;28;20055;-87
2023/07/15 01:39:22;;;;;;;8.10;2.00;;;22.70;88.70;;;;;;5083681;28;20103;-88
2023/07/15 01:41:47;;;;;;;5.22;2.08;;;22.70;88.40;;;;;;5118372;28;20040;-90
2023/07/15 01:44:14;;;;;;;8.27;2.20;;;22.80;88.50;;;;;;5099251;28;20004;-90
2023/07/15 01:46:40;;;;;;;6.63;2.15;;;22.80;87.90;;;;;;5098756;28;20049;-89
2023/07/15 01:49:07;;;;;;;8.20;2.03;;;22.90;87.90;;;;;;5115048;28;20017;-89
2023/07/15 01:51:34;;;;;;;3.28;1.90;;;22.90;87.60;;;;;;5113942;28;20035;-89
2023/07/15 01:54:00;;;;;;;4.00;2.00;;;23.00;87.60;;;;;;5096380;28;20023;-89
2023/07/15 01:56:32;;;;;;;5.85;2.10;;;23.00;87.60;;;;;;5078983;28;20036;-89
2023/07/15 01:58:58;;;;;;;6.00;1.95;;;23.00;87.10;;;;;;5078979;28;21118;-90
2023/07/15 02:01:24;;;;;;;6.05;2.03;;;23.00;87.10;;;;;;5096242;28;20117;-89
2023/07/15 02:03:50;;;;;;;6.03;2.05;;;23.00;86.90;;;;;;5077926;28;20021;-87
2023/07/15 02:06:17;;;;;;;4.22;1.70;;;23.00;87.00;;;;;;5094665;28;20043;-92
2023/07/15 02:08:43;;;;;;;5.50;2.25;;;23.00;86.80;;;;;;5078648;28;20027;-89
2023/07/15 02:11:09;;;;;;;5.82;2.00;;;23.00;86.80;;;;;;5095350;28;20024;-90
2023/07/15 02:13:34;;;;;;;5.40;2.05;;;23.00;87.00;;;;;;5094865;28;20054;-89
2023/07/15 02:16:00;;;;;;;3.70;1.90;;;23.00;86.90;;;;;;5077912;28;20028;-89
2023/07/15 02:18:25;;;;;;;3.30;1.88;;;23.00;86.60;;;;;;5078325;28;20029;-89
2023/07/15 02:20:52;;;;;;;8.35;1.90;;;23.00;86.30;;;;;;5077711;28;20028;-85
2023/07/15 02:23:17;;;;;;;4.50;1.90;;;23.00;86.50;;;;;;5076685;28;20036;-87
2023/07/15 02:25:43;;;;;;;4.90;1.77;;;23.00;86.30;;;;;;5077611;28;20020;-87
2023/07/15 02:28:12;;;;;;;4.68;1.98;;;23.00;86.20;;;;;;5093807;28;20039;-87
2023/07/15 02:30:38;;;;;;;5.68;2.15;;;23.00;86.20;;;;;;5077564;28;20469;-86
2023/07/15 02:33:06;;;;;;;3.80;1.70;;;22.90;86.10;;;;;;5077030;28;20036;-87
2023/07/15 02:35:33;;;;;;;4.75;2.10;;;23.00;86.00;;;;;;5095065;28;20067;-88
2023/07/15 02:37:59;;;;;;;5.75;2.33;;;23.00;86.10;;;;;;5094536;28;20031;-87
2023/07/15 02:40:25;;;;;;;8.23;1.70;;;23.00;86.30;;;;;;5093719;28;20408;-87
2023/07/15 02:42:52;;;;;;;5.40;1.63;;;22.90;86.00;;;;;;5094214;28;20028;-92
2023/07/15 02:45:18;;;;;;;5.95;1.80;;;22.90;86.20;;;;;;5093972;28;20020;-87
2023/07/15 02:47:43;;;;;;;3.60;1.92;;;22.90;86.00;;;;;;5077174;28;20035;-87
2023/07/15 02:50:10;;;;;;;6.82;1.80;;;22.90;86.00;;;;;;5076754;28;20024;-87
2023/07/15 02:52:37;;;;;;;6.22;2.20;;;22.90;86.10;;;;;;5077390;28;20099;-92
2023/07/15 02:55:07;;;;;;;5.22;2.00;;;22.90;86.30;;;;;;5077711;28;20482;-91
2023/07/15 02:57:33;;;;;;;7.95;2.30;;;22.90;86.40;;;;;;5077983;28;20035;-92
2023/07/15 03:00:00;;;;;;;4.40;2.10;;;22.80;86.10;;;;;;5073540;28;20040;-92
2023/07/15 03:02:28;;;;;;;8.35;2.00;;;22.90;86.40;;;;;;5077932;28;20058;-94
2023/07/15 03:04:54;;;;;;;4.35;2.17;;;22.80;86.00;;;;;;5094642;28;20027;-95
2023/07/15 03:07:20;;;;;;;3.35;1.83;;;22.80;86.00;;;;;;5095362;28;20020;-93
2023/07/15 03:09:45;;;;;;;4.53;2.00;;;22.80;85.90;;;;;;5077060;28;20027;-89
2023/07/15 03:12:11;;;;;;;4.22;2.00;;;22.80;86.30;;;;;;5077233;28;20073;-94
2023/07/15 03:14:38;;;;;;;6.13;2.20;;;22.80;86.50;;;;;;5077288;28;20388;-88
2023/07/15 03:17:04;;;;;;;5.90;2.15;;;22.70;86.60;;;;;;5094074;28;20023;-87
2023/07/15 03:19:31;;;;;;;6.68;2.30;;;22.70;86.60;;;;;;5093678;28;20032;-87
2023/07/15 03:21:57;;;;;;;4.32;1.92;;;22.70;86.70;;;;;;5077538;28;20012;-87
2023/07/15 03:24:25;;;;;;;4.60;1.80;;;22.70;86.70;;;;;;5076572;28;20069;-87
2023/07/15 03:26:52;;;;;;;2.90;1.77;;;22.70;87.10;;;;;;5093704;28;20093;-87
2023/07/15 03:29:18;;;;;;;6.38;2.17;;;22.70;87.20;;;;;;5076737;28;20032;-87
2023/07/15 03:31:45;;;;;;;6.93;2.00;;;22.60;87.20;;;;;;5076450;28;20050;-87
2023/07/15 03:34:11;;;;;;;4.68;1.83;;;22.60;87.30;;;;;;5076781;28;20065;-87
2023/07/15 03:36:37;;;;;;;3.45;1.85;;;22.60;87.40;;;;;;5076169;28;20435;-87
2023/07/15 03:39:03;;;;;;;8.77;2.15;;;22.60;87.60;;;;;;5092589;28;20430;-87
2023/07/15 03:41:28;;;;;;;7.25;2.03;;;22.60;88.30;;;;;;5075930;28;20062;-87
2023/07/15 03:43:54;;;;;;;8.43;2.10;;;22.60;89.10;;;;;;5075910;28;20042;-87
2023/07/15 03:46:20;;;;;;;5.75;1.90;;;22.60;89.20;;;;;;5075911;28;20020;-87
2023/07/15 03:48:46;;;;;;;6.47;1.98;;;22.60;90.00;;;;;;5075999;28;20027;-87
2023/07/15 03:51:11;;;;;;;7.72;2.15;;;22.50;90.10;;;;;;5076254;28;20029;-87
2023/07/15 03:53:37;;;;;;;5.53;2.00;;;22.50;90.00;;;;;;5076042;28;20024;-88
2023/07/15 03:56:03;;;;;;;6.85;2.22;;;22.50;89.90;;;;;;5076420;28;20115;-87
2023/07/15 03:58:29;;;;;;;4.10;1.83;;;22.40;89.70;;;;;;5076930;28;20055;-89
2023/07/15 04:00:55;;;;;;;6.05;2.10;;;22.40;89.90;;;;;;5076434;28;20048;-89
2023/07/15 04:03:21;;;;;;;5.22;2.30;;;22.40;90.00;;;;;;5076927;28;20492;-89
2023/07/15 04:05:46;;;;;;;5.32;2.30;;;22.40;90.00;;;;;;5094085;28;20492;-87
2023/07/15 04:08:12;;;;;;;6.22;2.20;;;22.30;90.00;;;;;;5077922;28;20404;-87
2023/07/15 04:10:38;;;;;;;3.33;2.05;;;22.30;90.00;;;;;;5076766;28;20055;-87
2023/07/15 04:13:04;;;;;;;5.97;2.10;;;22.30;90.00;;;;;;5077690;28;20028;-87
2023/07/15 04:15:30;;;;;;;5.53;2.08;;;22.30;90.30;;;;;;5096422;28;20035;-87
2023/07/15 04:17:57;;;;;;;6.45;2.30;;;22.30;90.70;;;;;;5103782;28;20056;-86
2023/07/15 04:20:23;;;;;;;6.57;2.13;;;22.30;90.90;;;;;;5112765;28;20040;-86
2023/07/15 04:22:49;;;;;;;4.57;2.28;;;22.20;91.30;;;;;;5084612;28;20024;-94
2023/07/15 04:25:15;;;;;;;8.45;2.58;;;22.20;91.40;;;;;;5076729;28;20107;-92
2023/07/15 04:27:41;;;;;;;5.18;2.13;;;22.20;91.50;;;;;;5076674;28;20431;-93
2023/07/15 04:30:09;;;;;;;5.38;2.40;;;22.20;91.60;;;;;;5093277;28;20020;-93
2023/07/15 04:32:35;;;;;;;5.63;2.20;;;22.20;91.70;;;;;;5093300;28;20089;-93
2023/07/15 04:35:02;;;;;;;7.55;2.38;;;22.10;91.80;;;;;;5076444;28;20032;-93
2023/07/15 04:37:31;;;;;;;8.32;2.33;;;22.10;92.00;;;;;;5093612;28;20051;-94
2023/07/15 04:40:03;;;;;;;4.45;2.08;;;22.10;92.40;;;;;;5094086;28;20024;-94
2023/07/15 04:42:31;;;;;;;7.93;2.50;;;22.10;92.30;;;;;;5078308;28;20127;-94
2023/07/15 04:44:57;;;;;;;5.63;2.55;;;22.10;92.50;;;;;;5077679;28;20025;-93
2023/07/15 04:47:22;;;;;;;4.28;2.15;;;22.10;92.60;;;;;;5096695;28;20110;-94
2023/07/15 04:49:48;;;;;;;5.13;2.22;;;22.10;92.50;;;;;;5081276;28;20525;-95
2023/07/15 04:52:14;;;;;;;4.45;2.22;;;22.00;92.40;;;;;;5081286;28;20036;-93
2023/07/15 04:54:40;;;;;;;6.00;2.78;;;22.00;92.50;;;;;;5081575;28;20108;-88
2023/07/15 04:57:07;;;;;;;5.82;2.22;;;22.00;92.50;;;;;;5096143;28;20052;-87
2023/07/15 04:59:33;;;;;;;7.32;2.97;;;21.90;92.50;;;;;;5078809;28;20032;-88
2023/07/15 05:01:59;;;;;;;6.53;2.30;;;21.90;92.90;;;;;;5078920;28;20381;-87
2023/07/15 05:04:24;;;;;;;8.00;2.60;;;21.90;92.70;;;;;;5078938;28;20026;-87
2023/07/15 05:06:55;;;;;;;6.88;2.30;;;21.90;92.70;;;;;;5079044;28;20481;-87
2023/07/15 05:09:21;;;;;;;7.60;2.55;;;21.90;92.90;;;;;;5095971;28;20377;-87
2023/07/15 05:11:47;;;;;;;5.57;2.10;;;21.80;93.00;;;;;;5078805;28;20384;-86
2023/07/15 05:14:12;;;;;;;7.13;2.65;;;21.90;93.10;;;;;;5079345;28;20043;-94
2023/07/15 05:16:42;;;;;;;4.25;2.50;;;21.80;93.20;;;;;;5079725;28;20060;-92
2023/07/15 05:19:08;;;;;;;7.25;2.35;;;21.90;93.40;;;;;;5079980;28;20541;-93
2023/07/15 05:21:35;;;;;;;6.90;2.35;;;21.90;93.50;;;;;;5096242;28;20024;-92
2023/07/15 05:24:00;;;;;;;5.72;2.70;;;21.90;93.60;;;;;;5079788;28;20373;-88
2023/07/15 05:26:29;;;;;;;5.97;2.67;;;21.90;93.80;;;;;;5095886;28;20020;-91
2023/07/15 05:28:55;;;;;;;5.93;2.67;;;22.00;94.00;;;;;;5096009;28;20023;-92
2023/07/15 05:31:20;;;;;;;9.30;2.50;;;22.00;94.30;;;;;;5079995;28;20077;-86
2023/07/15 05:33:46;;;;;;;6.07;2.60;;;22.00;94.40;;;;;;5095242;28;20028;-89
2023/07/15 05:36:13;;;;;;;5.32;2.83;;;22.10;94.40;;;;;;5095222;28;20048;-88
2023/07/15 05:38:43;;;;;;;3.92;2.38;;;22.10;94.40;;;;;;5095351;28;20107;-89
2023/07/15 05:41:11;;;;;;;6.55;2.42;;;22.10;94.40;;;;;;5095398;28;20032;-89
2023/07/15 05:43:37;;;;;;;5.07;2.30;;;22.10;94.50;;;;;;5095355;28;20012;-89
2023/07/15 05:46:03;;;;;;;4.80;2.40;;;22.10;94.50;;;;;;5079305;28;20035;-94
2023/07/15 05:48:31;;;;;;;5.40;2.47;;;22.10;94.50;;;;;;5079146;28;20111;-94
2023/07/15 05:51:22;;;;;;;8.55;2.80;;;22.10;94.70;;;;;;5078896;28;20032;-95
2023/07/15 05:53:50;;;;;;;5.35;2.60;;;22.20;94.90;;;;;;5095645;28;20051;-95
2023/07/15 05:56:16;;;;;;;6.72;2.33;;;22.20;94.90;;;;;;5096144;28;20095;-95
2023/07/15 05:58:42;;;;;;;5.05;2.85;;;22.20;94.80;;;;;;5078587;28;20058;-94
2023/07/15 06:01:07;;;;;;;13.88;3.53;;;22.20;94.60;;;;;;5078781;28;20504;-93
2023/07/15 06:03:33;;;;;;;5.70;2.92;;;22.20;94.60;;;;;;5078466;28;20024;-87
2023/07/15 06:06:07;;;;;;;7.93;3.03;;;22.20;94.50;;;;;;5094848;28;20048;-87
2023/07/15 06:08:33;;;;;;;5.50;3.15;;;22.20;94.40;;;;;;5078838;28;20430;-88
2023/07/15 06:10:59;;;;;;;4.45;2.63;;;22.20;94.50;;;;;;5077657;28;20035;-88
2023/07/15 06:13:25;;;;;;;7.43;2.92;;;22.30;94.40;;;;;;5094607;28;20484;-88
2023/07/15 06:15:51;;;;;;;6.75;2.58;;;22.30;94.20;;;;;;5094563;28;20127;-88
2023/07/15 06:18:17;;;;;;;7.15;2.80;;;22.30;94.40;;;;;;5096385;28;20468;-89
2023/07/15 06:20:46;;;;;;;4.88;2.88;;;22.30;94.40;;;;;;5108705;28;20039;-88
2023/07/15 06:23:11;;;;;;;4.82;2.40;;;22.40;94.50;;;;;;5108399;28;20031;-88
2023/07/15 06:25:37;;;;;;;7.00;2.60;;;22.40;94.70;;;;;;5092310;28;20017;-89
2023/07/15 06:28:04;;;;;;;6.50;2.33;;;22.40;94.80;;;;;;5091797;28;20031;-88
2023/07/15 06:30:29;;;;;;;5.68;2.33;;;22.50;95.10;;;;;;5107358;28;20142;-88
2023/07/15 06:32:55;;;;;;;6.07;2.38;;;22.50;95.50;;;;;;5090472;28;20036;-88
2023/07/15 06:35:21;;;;;;;3.45;2.20;;;22.50;95.60;;;;;;5086567;28;20035;-87
2023/07/15 06:37:48;;;;;;;9.30;2.67;;;22.60;95.90;;;;;;5094093;28;20035;-87
2023/07/15 06:40:18;;;;;;;5.22;2.17;;;22.60;96.10;;;;;;5093667;28;20020;-87
2023/07/15 06:42:44;;;;;;;3.95;2.22;;;22.70;96.20;;;;;;5077124;28;20032;-93
2023/07/15 06:45:11;;;;;;;5.78;2.00;;;22.80;96.50;;;;;;5094623;28;20050;-94
2023/07/15 06:47:37;;;;;;;8.27;2.60;;;22.80;96.60;;;;;;5094417;28;20024;-93
2023/07/15 06:50:03;;;;;;;3.70;1.77;;;22.90;96.70;;;;;;5077674;28;20039;-93
2023/07/15 06:52:29;;;;;;;7.03;2.28;;;22.90;96.80;;;;;;5077707;28;20051;-87
2023/07/15 06:55:29;;;;;;;5.57;2.10;;;23.00;96.90;;;;;;5094228;28;20068;-87
2023/07/15 06:57:54;;;;;;;4.43;1.90;;;23.00;97.10;;;;;;5088803;28;20127;-87
2023/07/15 07:00:22;;;;;;;4.97;2.30;;;23.00;97.20;;;;;;5092794;28;20135;-87
2023/07/15 07:02:48;;;;;;;7.53;2.50;;;23.10;97.30;;;;;;5094931;28;20372;-87
2023/07/15 07:05:15;;;;;;;4.60;2.33;;;23.10;97.50;;;;;;5093736;28;20103;-87
2023/07/15 07:07:41;;;;;;;4.82;2.53;;;23.10;97.50;;;;;;5060660;28;20043;-87
2023/07/15 07:10:08;;;;;;;4.57;2.03;;;23.20;97.70;;;;;;5078336;28;20032;-87
2023/07/15 07:12:33;;;;;;;7.32;2.65;;;23.20;97.60;;;;;;5109926;28;20052;-86
2023/07/15 07:14:59;;;;;;;4.80;2.00;;;23.30;97.80;;;;;;5093034;28;20046;-86
2023/07/15 07:17:25;;;;;;;6.80;2.53;;;23.30;97.90;;;;;;5108563;28;20095;-87
2023/07/15 07:19:50;;;;;;;3.97;1.85;;;23.40;97.90;;;;;;5082589;28;20032;-88
2023/07/15 07:22:16;;;;;;;3.80;2.30;;;23.40;97.90;;;;;;5056935;28;20036;-89
2023/07/15 07:24:41;;;;;;;3.97;2.20;;;23.40;98.00;;;;;;5056947;28;20064;-92
2023/07/15 07:27:07;;;;;;;3.97;2.00;;;23.50;98.00;;;;;;5073665;28;20021;-93
2023/07/15 07:29:34;;;;;;;5.00;2.35;;;23.50;98.10;;;;;;5073631;28;20085;-93
2023/07/15 07:31:59;;;;;;;5.07;2.50;;;23.60;98.10;;;;;;5090821;28;20374;-91
2023/07/15 07:34:25;;;;;;;5.25;2.33;;;23.60;98.30;;;;;;5073557;28;20028;-90
2023/07/15 07:36:51;;;;;;;4.03;2.40;;;23.60;98.30;;;;;;5074447;28;20029;-91
2023/07/15 07:39:17;;;;;;;8.43;3.17;;;23.70;98.30;;;;;;5040726;28;20058;-91
2023/07/15 07:41:42;;;;;;;4.60;2.55;;;23.70;98.20;;;;;;5090572;28;20024;-86
2023/07/15 07:44:09;;;;;;;5.22;2.38;;;23.80;98.10;;;;;;5072637;28;20020;-88
2023/07/15 07:46:35;;;;;;;7.07;2.10;;;23.90;98.20;;;;;;5057332;28;20093;-91
2023/07/15 07:49:01;;;;;;;5.80;2.72;;;23.90;98.10;;;;;;5090209;28;20021;-91
2023/07/15 07:51:27;;;;;;;5.50;2.20;;;24.00;97.60;;;;;;5073816;28;20418;-90
2023/07/15 07:53:54;;;;;;;4.25;2.50;;;24.00;97.40;;;;;;5074010;28;20382;-89
2023/07/15 07:56:19;;;;;;;4.10;2.20;;;24.10;97.40;;;;;;5073989;28;20127;-89
2023/07/15 07:58:45;;;;;;;4.50;2.55;;;24.10;97.20;;;;;;5056316;28;20061;-88
2023/07/15 08:01:11;;;;;;;7.03;2.60;;;24.20;97.00;;;;;;5056839;28;20057;-88
2023/07/15 08:03:37;;;;;;;6.00;2.45;;;24.20;96.80;;;;;;5073074;28;20028;-88
2023/07/15 08:06:04;;;;;;;4.63;2.53;;;24.20;96.70;;;;;;5072893;28;20029;-87
2023/07/15 08:08:32;;;;;;;3.97;2.10;;;24.30;96.40;;;;;;5072886;28;20021;-87
2023/07/15 08:10:58;;;;;;;7.13;2.28;;;24.30;96.50;;;;;;5072841;28;20029;-88
2023/07/15 08:13:23;;;;;;;7.32;2.33;;;24.30;96.10;;;;;;5056522;28;20029;-88
2023/07/15 08:15:50;;;;;;;4.20;1.70;;;24.30;96.20;;;;;;5089219;28;20035;-87
2023/07/15 08:18:15;;;;;;;6.13;2.33;;;24.40;96.30;;;;;;5073518;28;20032;-87
2023/07/15 08:20:44;;;;;;;4.32;2.40;;;24.40;96.30;;;;;;5056101;28;20186;-88
2023/07/15 08:23:28;;;;;;;5.80;2.42;;;24.50;96.50;;;;;;5060126;28;20033;-87
2023/07/15 08:25:54;;;;;;;5.03;2.25;;;24.60;96.30;;;;;;5076585;28;20369;-87
2023/07/15 08:28:19;;;;;;;6.90;1.98;;;24.60;96.50;;;;;;5080909;28;20093;-92
2023/07/15 08:30:45;;;;;;;4.05;2.10;;;24.60;96.50;;;;;;5097948;28;20100;-91
2023/07/15 08:33:11;;;;;;;3.10;1.92;;;24.70;96.70;;;;;;5081792;28;20094;-90
2023/07/15 08:35:36;;;;;;;4.57;1.98;;;24.70;96.20;;;;;;5077012;28;20019;-90
2023/07/15 08:38:02;;;;;;;3.80;1.73;;;24.70;96.40;;;;;;5060485;28;20350;-90
2023/07/15 08:40:29;;;;;;;3.92;1.90;;;24.70;96.50;;;;;;5081373;28;20016;-93
2023/07/15 08:42:55;;;;;;;3.38;1.75;;;24.70;96.70;;;;;;5076904;28;20048;-93
2023/07/15 08:45:24;;;;;;;3.90;1.60;;;24.80;96.80;;;;;;5093746;28;20078;-93
2023/07/15 08:47:50;;;;;;;4.78;2.13;;;24.70;97.00;;;;;;5110121;28;20020;-93
2023/07/15 08:50:17;;;;;;;3.70;1.60;;;24.80;97.20;;;;;;5076565;28;20430;-87
2023/07/15 08:52:44;;;;;;;2.40;1.50;;;24.80;97.10;;;;;;5092817;28;20036;-88
2023/07/15 08:55:11;;;;;;;3.33;1.42;;;24.80;96.90;;;;;;5092661;28;20497;-87
2023/07/15 08:57:37;;;;;;;4.00;1.38;;;24.90;96.80;;;;;;5075924;28;20047;-93
2023/07/15 09:00:07;;;;;;;3.38;1.40;;;24.90;96.50;;;;;;5076787;28;20493;-94
2023/07/15 09:02:37;;;;;;;4.40;1.50;;;24.90;96.40;;;;;;5076180;28;20022;-86
2023/07/15 09:05:07;;;;;;;2.10;1.47;;;24.90;96.60;;;;;;5076243;28;20025;-86
2023/07/15 09:07:49;;;;;;;3.03;1.30;;;24.90;96.30;;;;;;5076134;28;20024;-86
2023/07/15 09:10:15;;;;;;;2.60;1.40;;;24.90;96.00;;;;;;5092464;28;20025;-87
2023/07/15 09:12:51;;;;;;;3.10;1.23;;;24.90;95.90;;;;;;5092615;28;20024;-88
2023/07/15 09:15:17;;;;;;;2.97;1.40;;;24.90;95.70;;;;;;5076490;28;20044;-88
2023/07/15 09:17:53;;;;;;;4.18;1.40;;;24.90;95.70;;;;;;5075274;28;20028;-88
2023/07/15 09:20:21;;;;;;;6.55;1.50;;;24.90;95.70;;;;;;5075736;28;20473;-88
2023/07/15 09:23:01;;;;;;;3.45;1.30;;;24.90;95.80;;;;;;5091614;28;20029;-88
2023/07/15 09:25:27;;;;;;;5.57;1.80;;;24.90;95.80;;;;;;5067796;28;20029;-87
2023/07/15 09:27:54;;;;;;;3.67;1.60;;;24.90;95.70;;;;;;5093954;28;20032;-87
2023/07/15 09:30:20;;;;;;;3.67;1.58;;;25.00;95.80;;;;;;5076357;28;20021;-88
2023/07/15 09:32:47;;;;;;;5.50;1.50;;;24.90;95.80;;;;;;5091719;28;20379;-88
2023/07/15 09:35:16;;;;;;;4.43;1.80;;;24.90;95.60;;;;;;5075439;28;20021;-89
2023/07/15 09:37:46;;;;;;;4.13;2.10;;;24.90;95.90;;;;;;5076338;28;20024;-89
2023/07/15 09:40:12;;;;;;;4.20;1.65;;;24.90;95.80;;;;;;5075928;28;20044;-89
2023/07/15 09:42:55;;;;;;;9.60;1.88;;;24.90;95.60;;;;;;5075736;28;20020;-89
2023/07/15 09:45:34;;;;;;;6.45;1.80;;;24.90;95.80;;;;;;5075468;28;20033;-90
2023/07/15 09:48:03;;;;;;;6.40;1.52;;;24.80;96.00;;;;;;5092417;28;20021;-90
2023/07/15 09:50:39;;;;;;;3.97;1.52;;;24.80;96.00;;;;;;5076211;28;20386;-89
2023/07/15 09:53:06;;;;;;;4.15;1.55;;;24.80;96.10;;;;;;5075563;28;20043;-89
2023/07/15 09:55:33;;;;;;;4.20;1.70;;;24.70;96.20;;;;;;5092399;28;20028;-90
2023/07/15 09:58:17;;;;;;;3.60;1.50;;;24.70;96.30;;;;;;5059069;28;20143;-90
2023/07/15 10:00:47;;;;;;;3.60;1.58;;;24.70;96.40;;;;;;5075067;28;20397;-90
2023/07/15 10:03:27;;;;;;;2.57;1.47;;;24.80;96.30;;;;;;5092589;28;20024;-90
2023/07/15 10:05:53;;;;;;;3.83;1.48;;;24.80;96.40;;;;;;5075762;28;20263;-90
2023/07/15 10:08:35;;;;;;;5.63;1.65;;;24.80;96.50;;;;;;5042191;28;20024;-90
2023/07/15 10:11:01;;;;;;;6.68;1.90;;;24.90;96.60;;;;;;5092015;28;20020;-91
2023/07/15 10:13:28;;;;;;;4.75;1.95;;;24.90;95.60;;;;;;5092950;28;20032;-92
2023/07/15 10:15:53;;;;;;;6.25;1.80;;;24.90;95.60;;;;;;5059684;28;20028;-92
2023/07/15 10:18:22;;;;;;;3.42;1.70;;;24.90;95.30;;;;;;5075890;28;20050;-92
2023/07/15 10:20:57;;;;;;;4.80;2.10;;;24.90;95.00;;;;;;5075403;28;20025;-91
2023/07/15 10:23:28;;;;;;;5.57;2.25;;;24.80;94.50;;;;;;5092690;28;20039;-92
2023/07/15 10:26:06;;;;;;;4.25;2.00;;;24.80;94.30;;;;;;5091818;28;20481;-92
2023/07/15 10:28:37;;;;;;;6.78;1.90;;;24.80;94.60;;;;;;5074693;28;20024;-91
2023/07/15 10:31:16;;;;;;;7.05;2.25;;;24.70;94.30;;;;;;5075006;28;20039;-90
2023/07/15 10:33:56;;;;;;;5.82;1.70;;;24.70;94.40;;;;;;5091793;28;20366;-90
2023/07/15 10:36:42;;;;;;;5.72;1.92;;;24.70;94.40;;;;;;5074596;28;20040;-90
2023/07/15 10:39:12;;;;;;;7.22;2.05;;;24.70;95.00;;;;;;5091075;28;20393;-90
2023/07/15 10:41:46;;;;;;;6.68;2.05;;;24.70;95.00;;;;;;5091545;28;20025;-91
2023/07/15 10:44:23;;;;;;;3.72;1.75;;;24.70;94.90;;;;;;5074185;28;20115;-89
2023/07/15 10:47:04;;;;;;;5.90;1.80;;;24.60;94.70;;;;;;5074669;28;20033;-90
2023/07/15 10:49:30;;;;;;;7.18;1.90;;;24.60;95.40;;;;;;5092094;28;20029;-91
2023/07/15 10:51:57;;;;;;;5.68;2.28;;;24.60;95.70;;;;;;5090960;28;20033;-89
2023/07/15 10:54:25;;;;;;;8.18;2.33;;;24.50;96.10;;;;;;5041612;28;20074;-90
2023/07/15 10:56:51;;;;;;;4.43;1.83;;;24.50;96.10;;;;;;5091964;28;20055;-94
2023/07/15 10:59:16;;;;;;;5.93;2.35;;;24.50;95.90;;;;;;5057769;28;20493;-95
2023/07/15 11:01:45;;;;;;;4.88;2.00;;;24.50;96.50;;;;;;5074191;28;20045;-94
2023/07/15 11:04:11;;;;;;;5.15;2.03;;;24.40;97.00;;;;;;5074917;28;20020;-94
2023/07/15 11:06:38;;;;;;;4.75;2.13;;;24.30;96.70;;;;;;5075137;28;20024;-94
2023/07/15 11:09:21;;;;;;;6.90;1.80;;;24.30;96.80;;;;;;5075465;28;20021;-93
2023/07/15 11:11:49;;;;;;;3.90;2.00;;;24.30;96.60;;;;;;5075045;28;20031;-94
2023/07/15 11:14:22;;;;;;;3.60;1.65;;;24.30;96.40;;;;;;5058051;28;20027;-90
2023/07/15 11:16:50;;;;;;;5.22;2.05;;;24.30;96.40;;;;;;5073905;28;20025;-90
2023/07/15 11:19:16;;;;;;;4.35;1.90;;;24.30;95.90;;;;;;5091013;28;20085;-90
2023/07/15 11:21:43;;;;;;;4.28;1.80;;;24.30;95.00;;;;;;5074729;28;20536;-89
2023/07/15 11:24:12;;;;;;;6.82;1.73;;;24.30;95.00;;;;;;5073949;28;20028;-89
2023/07/15 11:26:38;;;;;;;3.33;1.70;;;24.30;95.30;;;;;;5090861;28;20035;-89
2023/07/15 11:29:26;;;;;;;13.18;2.22;;;24.30;95.40;;;;;;5074182;28;20059;-90
2023/07/15 11:31:56;;;;;;;2.15;1.65;;;24.30;94.50;;;;;;5090371;28;20043;-90
2023/07/15 11:34:24;;;;;;;4.85;1.90;;;24.30;94.60;;;;;;5090524;28;20021;-89
2023/07/15 11:36:54;;;;;;;3.65;1.88;;;24.30;94.50;;;;;;5090413;28;20048;-89
2023/07/15 11:39:20;;;;;;;3.53;1.77;;;24.30;94.40;;;;;;5090446;28;20107;-89
2023/07/15 11:41:48;;;;;;;6.95;2.40;;;24.30;94.70;;;;;;5090572;28;20021;-89
2023/07/15 11:44:16;;;;;;;3.50;1.80;;;24.30;95.30;;;;;;5090419;28;20359;-89
2023/07/15 11:46:44;;;;;;;7.82;1.88;;;24.30;95.50;;;;;;5090057;28;20028;-88
2023/07/15 11:49:11;;;;;;;4.10;1.88;;;24.20;95.00;;;;;;5089841;28;20052;-88
2023/07/15 11:51:40;;;;;;;4.28;1.80;;;24.20;94.70;;;;;;5090376;28;20029;-93
2023/07/15 11:54:11;;;;;;;3.07;1.70;;;24.20;94.80;;;;;;5075905;28;20429;-93
2023/07/15 11:56:37;;;;;;;3.88;1.83;;;24.20;94.40;;;;;;5074583;28;20033;-92
2023/07/15 11:59:07;;;;;;;2.90;1.77;;;24.20;94.20;;;;;;5073817;28;20024;-94
2023/07/15 12:01:32;;;;;;;4.32;1.70;;;24.20;94.60;;;;;;5074066;28;20140;-92
2023/07/15 12:03:58;;;;;;;5.65;1.90;;;24.20;95.10;;;;;;5056963;28;20055;-93
2023/07/15 12:06:26;;;;;;;6.78;1.90;;;24.30;95.40;;;;;;5057042;28;20391;-93
2023/07/15 12:09:19;;;;;;;4.35;2.00;;;24.40;94.80;;;;;;5074231;28;20029;-89
2023/07/15 12:11:46;;;;;;;6.07;2.30;;;24.50;94.80;;;;;;5072279;28;20473;-89
2023/07/15 12:14:15;;;;;;;3.45;1.80;;;24.50;94.80;;;;;;5056650;28;20362;-88
2023/07/15 12:16:42;;;;;;;6.10;1.77;;;24.50;94.20;;;;;;5089804;28;20099;-89
2023/07/15 12:19:14;;;;;;;2.58;1.65;;;24.50;94.00;;;;;;5072852;28;20117;-89
2023/07/15 12:21:40;;;;;;;3.75;1.60;;;24.60;94.10;;;;;;5089998;28;20365;-88
2023/07/15 12:24:06;;;;;;;5.22;1.80;;;24.60;94.10;;;;;;5072274;28;20036;-88
2023/07/15 12:26:32;;;;;;;2.40;1.60;;;24.70;94.10;;;;;;5092686;28;20100;-88
2023/07/15 12:28:58;;;;;;;3.78;1.85;;;24.80;94.00;;;;;;5114198;28;20050;-89
2023/07/15 12:31:24;;;;;;;4.88;1.77;;;24.80;93.90;;;;;;5096733;28;20088;-89
2023/07/15 12:33:50;;;;;;;5.15;1.92;;;24.90;94.00;;;;;;5057657;28;20029;-88
2023/07/15 12:36:17;;;;;;;3.05;1.65;;;25.10;94.00;;;;;;5072548;28;20457;-89
2023/07/15 12:38:44;;;;;;;4.65;1.88;;;25.20;93.60;;;;;;5089223;28;20040;-89
2023/07/15 12:41:11;;;;;;;3.38;2.00;;;25.30;92.70;;;;;;5055802;28;20028;-89
2023/07/15 12:43:38;;;;;;;6.05;1.92;;;25.30;92.60;;;;;;5089037;28;20020;-88
2023/07/15 12:46:04;;;;;;;3.78;1.85;;;25.30;93.00;;;;;;5072565;28;20020;-90
2023/07/15 12:48:30;;;;;;;3.17;1.80;;;25.40;92.50;;;;;;5074061;28;20465;-89
2023/07/15 12:50:56;;;;;;;5.80;2.10;;;25.40;92.00;;;;;;5089394;28;20028;-89
2023/07/15 12:53:23;;;;;;;5.85;1.80;;;25.40;92.40;;;;;;5072651;28;20029;-88